sensor_id;sensor_type;location;lat;lon;timestamp;P1;durP1;ratioP1;P2;durP2;ratioP2
25299;SDS011;13241;51.208;4.432;2023-04-08T00:00:29;9.43;;;3.95;;
25299;SDS011;13241;51.208;4.432;2023-04-08T00:02:56;8.35;;;4.47;;
25299;SDS011;13241;51.208;4.432;2023-04-08T00:05:23;12.02;;;3.85;;
25299;SDS011;13241;51.208;4.432;2023-04-08T00:07:51;7.53;;;3.17;;
25299;SDS011;13241;51.208;4.432;2023-04-08T00:10:18;12.00;;;4.13;;
25299;SDS011;13241;51.208;4.432;2023-04-08T00:12:46;12.07;;;4.22;;
25299;SDS011;13241;51.208;4.432;2023-04-08T00:15:13;7.72;;;4.25;;
25299;SDS011;13241;51.208;4.432;2023-04-08T00:17:40;8.63;;;4.28;;
25299;SDS011;13241;51.208;4.432;2023-04-08T00:20:07;14.60;;;4.22;;
25299;SDS011;13241;51.208;4.432;2023-04-08T00:22:34;8.73;;;4.32;;
25299;SDS011;13241;51.208;4.432;2023-04-08T00:25:01;14.55;;;4.38;;
25299;SDS011;13241;51.208;4.432;2023-04-08T00:27:32;17.17;;;5.20;;
25299;SDS011;13241;51.208;4.432;2023-04-08T00:29:59;11.07;;;3.90;;
25299;SDS011;13241;51.208;4.432;2023-04-08T00:32:26;17.85;;;4.75;;
25299;SDS011;13241;51.208;4.432;2023-04-08T00:34:54;9.50;;;5.15;;
25299;SDS011;13241;51.208;4.432;2023-04-08T00:37:21;14.70;;;4.00;;
25299;SDS011;13241;51.208;4.432;2023-04-08T00:39:48;14.75;;;5.50;;
25299;SDS011;13241;51.208;4.432;2023-04-08T00:42:16;9.40;;;3.58;;
25299;SDS011;13241;51.208;4.432;2023-04-08T00:44:42;11.20;;;4.50;;
25299;SDS011;13241;51.208;4.432;2023-04-08T00:47:13;13.40;;;4.35;;
25299;SDS011;13241;51.208;4.432;2023-04-08T00:49:41;8.95;;;4.72;;
25299;SDS011;13241;51.208;4.432;2023-04-08T00:52:09;8.35;;;4.18;;
25299;SDS011;13241;51.208;4.432;2023-04-08T00:54:36;9.05;;;4.10;;
25299;SDS011;13241;51.208;4.432;2023-04-08T00:57:04;16.17;;;4.65;;
25299;SDS011;13241;51.208;4.432;2023-04-08T00:59:32;11.77;;;3.90;;
25299;SDS011;13241;51.208;4.432;2023-04-08T01:05:01;5.03;;;3.88;;
25299;SDS011;13241;51.208;4.432;2023-04-08T01:07:36;11.45;;;4.43;;
25299;SDS011;13241;51.208;4.432;2023-04-08T01:10:25;9.55;;;3.63;;
25299;SDS011;13241;51.208;4.432;2023-04-08T01:12:56;13.38;;;4.40;;
25299;SDS011;13241;51.208;4.432;2023-04-08T01:15:25;13.07;;;5.10;;
25299;SDS011;13241;51.208;4.432;2023-04-08T01:17:54;19.20;;;4.90;;
25299;SDS011;13241;51.208;4.432;2023-04-08T01:20:25;12.18;;;4.47;;
25299;SDS011;13241;51.208;4.432;2023-04-08T01:25:52;6.90;;;4.00;;
25299;SDS011;13241;51.208;4.432;2023-04-08T01:28:20;6.63;;;4.13;;
25299;SDS011;13241;51.208;4.432;2023-04-08T01:30:49;21.73;;;5.28;;
25299;SDS011;13241;51.208;4.432;2023-04-08T01:33:17;8.48;;;5.05;;
25299;SDS011;13241;51.208;4.432;2023-04-08T01:35:47;14.07;;;4.80;;
25299;SDS011;13241;51.208;4.432;2023-04-08T01:38:15;17.52;;;5.20;;
25299;SDS011;13241;51.208;4.432;2023-04-08T01:40:44;14.05;;;5.18;;
25299;SDS011;13241;51.208;4.432;2023-04-08T01:43:13;16.80;;;5.35;;
25299;SDS011;13241;51.208;4.432;2023-04-08T01:45:43;18.42;;;5.22;;
25299;SDS011;13241;51.208;4.432;2023-04-08T01:48:14;16.05;;;5.18;;
25299;SDS011;13241;51.208;4.432;2023-04-08T01:50:42;17.15;;;6.65;;
25299;SDS011;13241;51.208;4.432;2023-04-08T01:53:11;11.25;;;4.82;;
25299;SDS011;13241;51.208;4.432;2023-04-08T01:55:39;17.27;;;5.78;;
25299;SDS011;13241;51.208;4.432;2023-04-08T01:58:08;8.63;;;4.93;;
25299;SDS011;13241;51.208;4.432;2023-04-08T02:00:39;18.45;;;5.45;;
25299;SDS011;13241;51.208;4.432;2023-04-08T02:03:07;17.95;;;5.10;;
25299;SDS011;13241;51.208;4.432;2023-04-08T02:05:38;23.45;;;6.57;;
25299;SDS011;13241;51.208;4.432;2023-04-08T02:08:05;16.92;;;6.63;;
25299;SDS011;13241;51.208;4.432;2023-04-08T02:10:32;15.45;;;5.63;;
25299;SDS011;13241;51.208;4.432;2023-04-08T02:12:59;19.50;;;8.02;;
25299;SDS011;13241;51.208;4.432;2023-04-08T02:15:29;16.55;;;6.50;;
25299;SDS011;13241;51.208;4.432;2023-04-08T02:18:14;17.95;;;5.75;;
25299;SDS011;13241;51.208;4.432;2023-04-08T02:20:46;11.40;;;6.22;;
25299;SDS011;13241;51.208;4.432;2023-04-08T02:23:21;21.50;;;6.50;;
25299;SDS011;13241;51.208;4.432;2023-04-08T02:25:55;14.05;;;6.63;;
25299;SDS011;13241;51.208;4.432;2023-04-08T02:28:25;17.17;;;7.28;;
25299;SDS011;13241;51.208;4.432;2023-04-08T02:30:54;11.27;;;5.40;;
25299;SDS011;13241;51.208;4.432;2023-04-08T02:33:22;9.85;;;5.93;;
25299;SDS011;13241;51.208;4.432;2023-04-08T02:35:51;14.88;;;5.57;;
25299;SDS011;13241;51.208;4.432;2023-04-08T02:38:21;17.88;;;5.82;;
25299;SDS011;13241;51.208;4.432;2023-04-08T02:40:49;18.98;;;6.88;;
25299;SDS011;13241;51.208;4.432;2023-04-08T02:43:16;18.08;;;6.72;;
25299;SDS011;13241;51.208;4.432;2023-04-08T02:45:43;22.67;;;7.97;;
25299;SDS011;13241;51.208;4.432;2023-04-08T02:48:10;13.38;;;5.82;;
25299;SDS011;13241;51.208;4.432;2023-04-08T02:50:37;18.70;;;7.35;;
25299;SDS011;13241;51.208;4.432;2023-04-08T02:53:06;15.55;;;6.72;;
25299;SDS011;13241;51.208;4.432;2023-04-08T02:55:35;20.63;;;6.25;;
25299;SDS011;13241;51.208;4.432;2023-04-08T02:58:03;17.77;;;6.95;;
25299;SDS011;13241;51.208;4.432;2023-04-08T03:00:29;19.08;;;7.82;;
25299;SDS011;13241;51.208;4.432;2023-04-08T03:02:56;16.05;;;6.53;;
25299;SDS011;13241;51.208;4.432;2023-04-08T03:05:24;14.93;;;6.88;;
25299;SDS011;13241;51.208;4.432;2023-04-08T03:07:51;19.15;;;7.65;;
25299;SDS011;13241;51.208;4.432;2023-04-08T03:10:18;19.67;;;6.30;;
25299;SDS011;13241;51.208;4.432;2023-04-08T03:12:45;13.85;;;7.00;;
25299;SDS011;13241;51.208;4.432;2023-04-08T03:15:12;13.20;;;6.15;;
25299;SDS011;13241;51.208;4.432;2023-04-08T03:17:39;14.10;;;5.95;;
25299;SDS011;13241;51.208;4.432;2023-04-08T03:20:06;12.80;;;6.20;;
25299;SDS011;13241;51.208;4.432;2023-04-08T03:22:34;17.08;;;8.13;;
25299;SDS011;13241;51.208;4.432;2023-04-08T03:25:02;14.27;;;6.82;;
25299;SDS011;13241;51.208;4.432;2023-04-08T03:27:29;23.35;;;7.05;;
25299;SDS011;13241;51.208;4.432;2023-04-08T03:29:56;14.25;;;6.47;;
25299;SDS011;13241;51.208;4.432;2023-04-08T03:32:23;25.23;;;7.00;;
25299;SDS011;13241;51.208;4.432;2023-04-08T03:34:50;14.38;;;6.85;;
25299;SDS011;13241;51.208;4.432;2023-04-08T03:37:17;20.67;;;8.30;;
25299;SDS011;13241;51.208;4.432;2023-04-08T03:39:44;16.63;;;8.32;;
25299;SDS011;13241;51.208;4.432;2023-04-08T03:42:11;24.10;;;7.38;;
25299;SDS011;13241;51.208;4.432;2023-04-08T03:44:38;16.35;;;7.35;;
25299;SDS011;13241;51.208;4.432;2023-04-08T03:47:05;17.02;;;6.43;;
25299;SDS011;13241;51.208;4.432;2023-04-08T03:49:32;18.00;;;7.25;;
25299;SDS011;13241;51.208;4.432;2023-04-08T03:51:58;17.45;;;6.85;;
25299;SDS011;13241;51.208;4.432;2023-04-08T03:54:25;16.83;;;7.22;;
25299;SDS011;13241;51.208;4.432;2023-04-08T03:56:52;21.27;;;7.43;;
25299;SDS011;13241;51.208;4.432;2023-04-08T03:59:19;21.80;;;7.63;;
25299;SDS011;13241;51.208;4.432;2023-04-08T04:01:45;21.58;;;7.57;;
25299;SDS011;13241;51.208;4.432;2023-04-08T04:04:13;25.98;;;8.70;;
25299;SDS011;13241;51.208;4.432;2023-04-08T04:06:40;20.75;;;8.15;;
25299;SDS011;13241;51.208;4.432;2023-04-08T04:09:07;13.98;;;6.80;;
25299;SDS011;13241;51.208;4.432;2023-04-08T04:11:33;17.17;;;7.85;;
25299;SDS011;13241;51.208;4.432;2023-04-08T04:14:01;14.77;;;7.00;;
25299;SDS011;13241;51.208;4.432;2023-04-08T04:16:28;24.45;;;8.52;;
25299;SDS011;13241;51.208;4.432;2023-04-08T04:18:58;15.52;;;7.45;;
25299;SDS011;13241;51.208;4.432;2023-04-08T04:21:25;12.60;;;7.05;;
25299;SDS011;13241;51.208;4.432;2023-04-08T04:23:52;19.25;;;8.82;;
25299;SDS011;13241;51.208;4.432;2023-04-08T04:26:19;23.70;;;7.68;;
25299;SDS011;13241;51.208;4.432;2023-04-08T04:28:46;22.35;;;7.20;;
25299;SDS011;13241;51.208;4.432;2023-04-08T04:31:20;23.50;;;7.38;;
25299;SDS011;13241;51.208;4.432;2023-04-08T04:33:49;19.88;;;8.98;;
25299;SDS011;13241;51.208;4.432;2023-04-08T04:36:15;29.10;;;8.25;;
25299;SDS011;13241;51.208;4.432;2023-04-08T04:38:43;20.52;;;7.68;;
25299;SDS011;13241;51.208;4.432;2023-04-08T04:41:10;13.85;;;6.57;;
25299;SDS011;13241;51.208;4.432;2023-04-08T04:43:37;19.60;;;7.47;;
25299;SDS011;13241;51.208;4.432;2023-04-08T04:46:04;24.15;;;8.60;;
25299;SDS011;13241;51.208;4.432;2023-04-08T04:48:34;22.42;;;7.22;;
25299;SDS011;13241;51.208;4.432;2023-04-08T04:51:01;16.88;;;7.47;;
25299;SDS011;13241;51.208;4.432;2023-04-08T04:53:29;19.92;;;7.28;;
25299;SDS011;13241;51.208;4.432;2023-04-08T04:55:56;17.17;;;7.53;;
25299;SDS011;13241;51.208;4.432;2023-04-08T04:58:23;24.80;;;7.35;;
25299;SDS011;13241;51.208;4.432;2023-04-08T05:00:50;16.33;;;7.53;;
25299;SDS011;13241;51.208;4.432;2023-04-08T05:03:17;18.70;;;7.18;;
25299;SDS011;13241;51.208;4.432;2023-04-08T05:05:44;20.75;;;8.48;;
25299;SDS011;13241;51.208;4.432;2023-04-08T05:08:15;22.13;;;8.30;;
25299;SDS011;13241;51.208;4.432;2023-04-08T05:10:42;16.95;;;6.72;;
25299;SDS011;13241;51.208;4.432;2023-04-08T05:13:09;17.83;;;7.30;;
25299;SDS011;13241;51.208;4.432;2023-04-08T05:15:35;31.35;;;8.18;;
25299;SDS011;13241;51.208;4.432;2023-04-08T05:18:02;24.63;;;7.72;;
25299;SDS011;13241;51.208;4.432;2023-04-08T05:20:29;21.67;;;8.18;;
25299;SDS011;13241;51.208;4.432;2023-04-08T05:22:56;24.83;;;8.50;;
25299;SDS011;13241;51.208;4.432;2023-04-08T05:25:23;12.05;;;6.43;;
25299;SDS011;13241;51.208;4.432;2023-04-08T05:27:50;21.98;;;8.05;;
25299;SDS011;13241;51.208;4.432;2023-04-08T05:30:17;20.17;;;8.63;;
25299;SDS011;13241;51.208;4.432;2023-04-08T05:32:44;21.17;;;8.68;;
25299;SDS011;13241;51.208;4.432;2023-04-08T05:35:11;31.08;;;7.80;;
25299;SDS011;13241;51.208;4.432;2023-04-08T05:37:37;18.20;;;7.50;;
25299;SDS011;13241;51.208;4.432;2023-04-08T05:40:04;22.65;;;9.80;;
25299;SDS011;13241;51.208;4.432;2023-04-08T05:42:32;26.00;;;9.95;;
25299;SDS011;13241;51.208;4.432;2023-04-08T05:44:59;24.58;;;8.60;;
25299;SDS011;13241;51.208;4.432;2023-04-08T05:47:26;14.80;;;8.57;;
25299;SDS011;13241;51.208;4.432;2023-04-08T05:49:53;25.58;;;7.88;;
25299;SDS011;13241;51.208;4.432;2023-04-08T05:52:19;21.50;;;9.20;;
25299;SDS011;13241;51.208;4.432;2023-04-08T05:54:46;22.13;;;8.45;;
25299;SDS011;13241;51.208;4.432;2023-04-08T05:57:13;13.35;;;7.90;;
25299;SDS011;13241;51.208;4.432;2023-04-08T05:59:41;18.85;;;9.32;;
25299;SDS011;13241;51.208;4.432;2023-04-08T06:02:08;17.13;;;9.43;;
25299;SDS011;13241;51.208;4.432;2023-04-08T06:04:35;20.95;;;9.82;;
25299;SDS011;13241;51.208;4.432;2023-04-08T06:07:02;22.50;;;8.80;;
25299;SDS011;13241;51.208;4.432;2023-04-08T06:09:33;15.93;;;7.53;;
25299;SDS011;13241;51.208;4.432;2023-04-08T06:12:00;19.95;;;8.00;;
25299;SDS011;13241;51.208;4.432;2023-04-08T06:14:27;20.27;;;9.07;;
25299;SDS011;13241;51.208;4.432;2023-04-08T06:16:54;23.83;;;10.43;;
25299;SDS011;13241;51.208;4.432;2023-04-08T06:19:22;18.60;;;8.88;;
25299;SDS011;13241;51.208;4.432;2023-04-08T06:21:50;26.13;;;8.32;;
25299;SDS011;13241;51.208;4.432;2023-04-08T06:24:16;24.40;;;8.63;;
25299;SDS011;13241;51.208;4.432;2023-04-08T06:26:43;24.02;;;9.52;;
25299;SDS011;13241;51.208;4.432;2023-04-08T06:29:10;16.02;;;7.22;;
25299;SDS011;13241;51.208;4.432;2023-04-08T06:31:37;18.02;;;9.00;;
25299;SDS011;13241;51.208;4.432;2023-04-08T06:34:04;27.10;;;10.40;;
25299;SDS011;13241;51.208;4.432;2023-04-08T06:36:31;17.08;;;9.30;;
25299;SDS011;13241;51.208;4.432;2023-04-08T06:38:57;27.58;;;9.82;;
25299;SDS011;13241;51.208;4.432;2023-04-08T06:41:25;22.08;;;8.68;;
25299;SDS011;13241;51.208;4.432;2023-04-08T06:43:59;22.23;;;9.40;;
25299;SDS011;13241;51.208;4.432;2023-04-08T06:46:26;22.83;;;10.27;;
25299;SDS011;13241;51.208;4.432;2023-04-08T06:48:53;20.70;;;8.80;;
25299;SDS011;13241;51.208;4.432;2023-04-08T06:51:20;27.70;;;9.18;;
25299;SDS011;13241;51.208;4.432;2023-04-08T06:53:47;22.05;;;8.75;;
25299;SDS011;13241;51.208;4.432;2023-04-08T06:56:14;32.05;;;9.55;;
25299;SDS011;13241;51.208;4.432;2023-04-08T06:58:41;29.20;;;9.77;;
25299;SDS011;13241;51.208;4.432;2023-04-08T07:01:07;24.92;;;9.75;;
25299;SDS011;13241;51.208;4.432;2023-04-08T07:03:34;28.38;;;10.80;;
25299;SDS011;13241;51.208;4.432;2023-04-08T07:06:01;27.90;;;9.25;;
25299;SDS011;13241;51.208;4.432;2023-04-08T07:08:29;20.73;;;9.77;;
25299;SDS011;13241;51.208;4.432;2023-04-08T07:10:56;21.90;;;9.45;;
25299;SDS011;13241;51.208;4.432;2023-04-08T07:13:23;19.58;;;9.15;;
25299;SDS011;13241;51.208;4.432;2023-04-08T07:15:50;30.48;;;11.30;;
25299;SDS011;13241;51.208;4.432;2023-04-08T07:18:17;20.42;;;8.65;;
25299;SDS011;13241;51.208;4.432;2023-04-08T07:20:44;20.23;;;9.40;;
25299;SDS011;13241;51.208;4.432;2023-04-08T07:23:16;26.42;;;10.70;;
25299;SDS011;13241;51.208;4.432;2023-04-08T07:25:43;23.83;;;10.00;;
25299;SDS011;13241;51.208;4.432;2023-04-08T07:28:10;21.13;;;8.98;;
25299;SDS011;13241;51.208;4.432;2023-04-08T07:30:37;22.88;;;9.88;;
25299;SDS011;13241;51.208;4.432;2023-04-08T07:33:04;39.03;;;9.95;;
25299;SDS011;13241;51.208;4.432;2023-04-08T07:35:32;16.77;;;9.15;;
25299;SDS011;13241;51.208;4.432;2023-04-08T07:37:59;33.35;;;11.55;;
25299;SDS011;13241;51.208;4.432;2023-04-08T07:40:26;25.08;;;11.02;;
25299;SDS011;13241;51.208;4.432;2023-04-08T07:42:53;20.60;;;8.75;;
25299;SDS011;13241;51.208;4.432;2023-04-08T07:45:20;21.35;;;10.05;;
25299;SDS011;13241;51.208;4.432;2023-04-08T07:47:46;18.02;;;8.82;;
25299;SDS011;13241;51.208;4.432;2023-04-08T07:50:13;18.92;;;8.88;;
25299;SDS011;13241;51.208;4.432;2023-04-08T07:52:40;20.17;;;9.40;;
25299;SDS011;13241;51.208;4.432;2023-04-08T07:55:07;22.38;;;9.63;;
25299;SDS011;13241;51.208;4.432;2023-04-08T07:57:34;18.17;;;8.88;;
25299;SDS011;13241;51.208;4.432;2023-04-08T08:00:01;16.55;;;8.45;;
25299;SDS011;13241;51.208;4.432;2023-04-08T08:02:38;23.02;;;8.65;;
25299;SDS011;13241;51.208;4.432;2023-04-08T08:05:05;19.40;;;9.35;;
25299;SDS011;13241;51.208;4.432;2023-04-08T08:07:33;19.40;;;8.70;;
25299;SDS011;13241;51.208;4.432;2023-04-08T08:09:59;17.90;;;8.40;;
25299;SDS011;13241;51.208;4.432;2023-04-08T08:12:26;19.33;;;9.10;;
25299;SDS011;13241;51.208;4.432;2023-04-08T08:14:53;24.23;;;8.90;;
25299;SDS011;13241;51.208;4.432;2023-04-08T08:17:24;18.15;;;8.75;;
25299;SDS011;13241;51.208;4.432;2023-04-08T08:19:54;17.38;;;8.50;;
25299;SDS011;13241;51.208;4.432;2023-04-08T08:22:21;25.50;;;9.85;;
25299;SDS011;13241;51.208;4.432;2023-04-08T08:24:48;23.50;;;9.43;;
25299;SDS011;13241;51.208;4.432;2023-04-08T08:27:14;15.10;;;8.10;;
25299;SDS011;13241;51.208;4.432;2023-04-08T08:29:41;23.42;;;9.75;;
25299;SDS011;13241;51.208;4.432;2023-04-08T08:32:08;14.25;;;7.30;;
25299;SDS011;13241;51.208;4.432;2023-04-08T08:34:35;25.10;;;9.60;;
25299;SDS011;13241;51.208;4.432;2023-04-08T08:37:01;12.68;;;7.65;;
25299;SDS011;13241;51.208;4.432;2023-04-08T08:39:28;17.40;;;7.38;;
25299;SDS011;13241;51.208;4.432;2023-04-08T08:41:56;14.45;;;6.60;;
25299;SDS011;13241;51.208;4.432;2023-04-08T08:44:22;16.80;;;8.57;;
25299;SDS011;13241;51.208;4.432;2023-04-08T08:46:49;18.45;;;8.70;;
25299;SDS011;13241;51.208;4.432;2023-04-08T08:49:16;18.13;;;8.00;;
25299;SDS011;13241;51.208;4.432;2023-04-08T08:51:44;18.20;;;8.77;;
25299;SDS011;13241;51.208;4.432;2023-04-08T08:54:13;23.50;;;8.20;;
25299;SDS011;13241;51.208;4.432;2023-04-08T08:56:40;21.52;;;8.50;;
25299;SDS011;13241;51.208;4.432;2023-04-08T08:59:08;20.13;;;8.30;;
25299;SDS011;13241;51.208;4.432;2023-04-08T09:01:36;21.40;;;9.05;;
25299;SDS011;13241;51.208;4.432;2023-04-08T09:04:16;20.35;;;7.68;;
25299;SDS011;13241;51.208;4.432;2023-04-08T09:06:48;21.98;;;8.95;;
25299;SDS011;13241;51.208;4.432;2023-04-08T09:09:41;20.17;;;7.95;;
25299;SDS011;13241;51.208;4.432;2023-04-08T09:12:17;13.95;;;6.68;;
25299;SDS011;13241;51.208;4.432;2023-04-08T09:14:44;14.35;;;7.10;;
25299;SDS011;13241;51.208;4.432;2023-04-08T09:17:11;14.35;;;7.38;;
25299;SDS011;13241;51.208;4.432;2023-04-08T09:19:38;13.95;;;8.10;;
25299;SDS011;13241;51.208;4.432;2023-04-08T09:22:06;14.98;;;7.03;;
25299;SDS011;13241;51.208;4.432;2023-04-08T09:24:34;17.40;;;8.13;;
25299;SDS011;13241;51.208;4.432;2023-04-08T09:27:03;18.08;;;7.68;;
25299;SDS011;13241;51.208;4.432;2023-04-08T09:29:31;15.95;;;8.18;;
25299;SDS011;13241;51.208;4.432;2023-04-08T09:32:02;23.73;;;8.70;;
25299;SDS011;13241;51.208;4.432;2023-04-08T09:34:29;16.77;;;9.32;;
25299;SDS011;13241;51.208;4.432;2023-04-08T09:36:59;21.27;;;8.70;;
25299;SDS011;13241;51.208;4.432;2023-04-08T09:39:26;16.50;;;7.85;;
25299;SDS011;13241;51.208;4.432;2023-04-08T09:41:53;17.60;;;8.60;;
25299;SDS011;13241;51.208;4.432;2023-04-08T09:44:24;18.10;;;8.38;;
25299;SDS011;13241;51.208;4.432;2023-04-08T09:47:12;21.55;;;9.48;;
25299;SDS011;13241;51.208;4.432;2023-04-08T09:49:51;21.83;;;9.90;;
25299;SDS011;13241;51.208;4.432;2023-04-08T09:55:12;23.10;;;10.30;;
25299;SDS011;13241;51.208;4.432;2023-04-08T09:57:43;23.77;;;10.02;;
25299;SDS011;13241;51.208;4.432;2023-04-08T10:00:32;19.75;;;9.50;;
25299;SDS011;13241;51.208;4.432;2023-04-08T10:05:51;25.38;;;10.20;;
25299;SDS011;13241;51.208;4.432;2023-04-08T10:08:19;22.85;;;10.80;;
25299;SDS011;13241;51.208;4.432;2023-04-08T10:10:46;25.52;;;10.82;;
25299;SDS011;13241;51.208;4.432;2023-04-08T10:13:13;29.25;;;10.93;;
25299;SDS011;13241;51.208;4.432;2023-04-08T10:15:40;22.15;;;9.85;;
25299;SDS011;13241;51.208;4.432;2023-04-08T10:23:02;26.38;;;9.82;;
25299;SDS011;13241;51.208;4.432;2023-04-08T10:25:33;17.45;;;7.82;;
25299;SDS011;13241;51.208;4.432;2023-04-08T10:30:43;19.50;;;8.48;;
25299;SDS011;13241;51.208;4.432;2023-04-08T10:33:12;12.48;;;7.05;;
25299;SDS011;13241;51.208;4.432;2023-04-08T10:35:43;15.48;;;6.97;;
25299;SDS011;13241;51.208;4.432;2023-04-08T10:38:15;17.63;;;7.50;;
25299;SDS011;13241;51.208;4.432;2023-04-08T10:40:42;14.95;;;6.60;;
25299;SDS011;13241;51.208;4.432;2023-04-08T10:43:12;18.50;;;7.55;;
25299;SDS011;13241;51.208;4.432;2023-04-08T10:45:42;16.88;;;7.60;;
25299;SDS011;13241;51.208;4.432;2023-04-08T10:50:44;13.13;;;6.10;;
25299;SDS011;13241;51.208;4.432;2023-04-08T10:55:53;15.73;;;6.03;;
25299;SDS011;13241;51.208;4.432;2023-04-08T10:58:20;13.60;;;5.75;;
25299;SDS011;13241;51.208;4.432;2023-04-08T11:00:47;8.90;;;5.10;;
25299;SDS011;13241;51.208;4.432;2023-04-08T11:03:14;10.90;;;5.20;;
25299;SDS011;13241;51.208;4.432;2023-04-08T11:05:42;10.70;;;4.93;;
25299;SDS011;13241;51.208;4.432;2023-04-08T11:08:09;10.77;;;5.63;;
25299;SDS011;13241;51.208;4.432;2023-04-08T11:10:36;12.15;;;4.63;;
25299;SDS011;13241;51.208;4.432;2023-04-08T11:13:07;9.77;;;5.22;;
25299;SDS011;13241;51.208;4.432;2023-04-08T11:15:37;14.73;;;5.55;;
25299;SDS011;13241;51.208;4.432;2023-04-08T11:18:04;9.80;;;4.28;;
25299;SDS011;13241;51.208;4.432;2023-04-08T11:20:32;8.77;;;4.95;;
25299;SDS011;13241;51.208;4.432;2023-04-08T11:23:01;16.58;;;5.75;;
25299;SDS011;13241;51.208;4.432;2023-04-08T11:25:28;12.40;;;5.85;;
25299;SDS011;13241;51.208;4.432;2023-04-08T11:27:55;11.88;;;4.70;;
25299;SDS011;13241;51.208;4.432;2023-04-08T11:30:22;10.35;;;4.63;;
25299;SDS011;13241;51.208;4.432;2023-04-08T11:32:50;8.88;;;4.97;;
25299;SDS011;13241;51.208;4.432;2023-04-08T11:35:17;9.45;;;4.22;;
25299;SDS011;13241;51.208;4.432;2023-04-08T11:37:45;11.73;;;5.03;;
25299;SDS011;13241;51.208;4.432;2023-04-08T11:40:18;9.15;;;4.88;;
25299;SDS011;13241;51.208;4.432;2023-04-08T11:42:46;12.95;;;5.93;;
25299;SDS011;13241;51.208;4.432;2023-04-08T11:45:14;9.98;;;5.30;;
25299;SDS011;13241;51.208;4.432;2023-04-08T11:47:42;13.98;;;5.80;;
25299;SDS011;13241;51.208;4.432;2023-04-08T11:50:12;13.80;;;6.63;;
25299;SDS011;13241;51.208;4.432;2023-04-08T11:52:49;20.55;;;6.93;;
25299;SDS011;13241;51.208;4.432;2023-04-08T11:55:23;13.25;;;6.43;;
25299;SDS011;13241;51.208;4.432;2023-04-08T11:57:52;10.05;;;5.32;;
25299;SDS011;13241;51.208;4.432;2023-04-08T12:00:20;14.43;;;5.78;;
25299;SDS011;13241;51.208;4.432;2023-04-08T12:02:48;13.25;;;5.53;;
25299;SDS011;13241;51.208;4.432;2023-04-08T12:05:16;9.00;;;4.93;;
25299;SDS011;13241;51.208;4.432;2023-04-08T12:07:43;10.63;;;5.22;;
25299;SDS011;13241;51.208;4.432;2023-04-08T12:10:11;8.40;;;4.40;;
25299;SDS011;13241;51.208;4.432;2023-04-08T12:12:38;9.85;;;5.07;;
25299;SDS011;13241;51.208;4.432;2023-04-08T12:15:06;10.88;;;4.90;;
25299;SDS011;13241;51.208;4.432;2023-04-08T12:17:34;12.60;;;4.88;;
25299;SDS011;13241;51.208;4.432;2023-04-08T12:20:01;10.50;;;4.85;;
25299;SDS011;13241;51.208;4.432;2023-04-08T12:22:29;10.00;;;4.50;;
25299;SDS011;13241;51.208;4.432;2023-04-08T12:24:56;11.93;;;5.18;;
25299;SDS011;13241;51.208;4.432;2023-04-08T12:27:24;13.45;;;6.20;;
25299;SDS011;13241;51.208;4.432;2023-04-08T12:29:51;12.82;;;5.28;;
25299;SDS011;13241;51.208;4.432;2023-04-08T12:32:18;12.82;;;5.88;;
25299;SDS011;13241;51.208;4.432;2023-04-08T12:34:45;11.35;;;5.65;;
25299;SDS011;13241;51.208;4.432;2023-04-08T12:37:12;13.77;;;5.43;;
25299;SDS011;13241;51.208;4.432;2023-04-08T12:39:39;11.50;;;5.53;;
25299;SDS011;13241;51.208;4.432;2023-04-08T12:42:06;11.13;;;5.78;;
25299;SDS011;13241;51.208;4.432;2023-04-08T12:44:33;8.75;;;5.32;;
25299;SDS011;13241;51.208;4.432;2023-04-08T12:47:00;11.90;;;6.25;;
25299;SDS011;13241;51.208;4.432;2023-04-08T12:49:26;12.00;;;6.28;;
25299;SDS011;13241;51.208;4.432;2023-04-08T12:51:53;8.40;;;5.05;;
25299;SDS011;13241;51.208;4.432;2023-04-08T12:54:20;15.80;;;7.03;;
25299;SDS011;13241;51.208;4.432;2023-04-08T12:56:47;15.00;;;5.78;;
25299;SDS011;13241;51.208;4.432;2023-04-08T12:59:14;14.30;;;5.57;;
25299;SDS011;13241;51.208;4.432;2023-04-08T13:01:41;11.50;;;6.07;;
25299;SDS011;13241;51.208;4.432;2023-04-08T13:04:08;13.38;;;5.43;;
25299;SDS011;13241;51.208;4.432;2023-04-08T13:06:34;9.93;;;5.18;;
25299;SDS011;13241;51.208;4.432;2023-04-08T13:09:01;10.63;;;5.10;;
25299;SDS011;13241;51.208;4.432;2023-04-08T13:11:28;13.68;;;5.75;;
25299;SDS011;13241;51.208;4.432;2023-04-08T13:13:55;10.95;;;5.32;;
25299;SDS011;13241;51.208;4.432;2023-04-08T13:16:22;10.45;;;5.43;;
25299;SDS011;13241;51.208;4.432;2023-04-08T13:18:49;10.48;;;5.32;;
25299;SDS011;13241;51.208;4.432;2023-04-08T13:21:16;9.48;;;5.10;;
25299;SDS011;13241;51.208;4.432;2023-04-08T13:23:43;9.88;;;5.30;;
25299;SDS011;13241;51.208;4.432;2023-04-08T13:26:12;10.15;;;5.65;;
25299;SDS011;13241;51.208;4.432;2023-04-08T13:28:38;12.88;;;6.70;;
25299;SDS011;13241;51.208;4.432;2023-04-08T13:31:22;11.80;;;5.88;;
25299;SDS011;13241;51.208;4.432;2023-04-08T13:33:49;9.82;;;5.43;;
25299;SDS011;13241;51.208;4.432;2023-04-08T13:36:15;12.93;;;6.63;;
25299;SDS011;13241;51.208;4.432;2023-04-08T13:38:43;13.25;;;6.82;;
25299;SDS011;13241;51.208;4.432;2023-04-08T13:41:11;12.43;;;7.68;;
25299;SDS011;13241;51.208;4.432;2023-04-08T13:43:38;14.27;;;7.30;;
25299;SDS011;13241;51.208;4.432;2023-04-08T13:46:04;11.95;;;6.85;;
25299;SDS011;13241;51.208;4.432;2023-04-08T13:48:31;13.10;;;7.45;;
25299;SDS011;13241;51.208;4.432;2023-04-08T13:50:58;15.27;;;7.38;;
25299;SDS011;13241;51.208;4.432;2023-04-08T13:53:24;13.77;;;6.78;;
25299;SDS011;13241;51.208;4.432;2023-04-08T13:55:52;12.15;;;6.60;;
25299;SDS011;13241;51.208;4.432;2023-04-08T13:58:21;15.65;;;7.13;;
25299;SDS011;13241;51.208;4.432;2023-04-08T14:00:50;15.27;;;7.40;;
25299;SDS011;13241;51.208;4.432;2023-04-08T14:03:17;15.00;;;7.40;;
25299;SDS011;13241;51.208;4.432;2023-04-08T14:05:44;13.43;;;7.40;;
25299;SDS011;13241;51.208;4.432;2023-04-08T14:08:11;13.40;;;7.53;;
25299;SDS011;13241;51.208;4.432;2023-04-08T14:10:39;14.73;;;7.30;;
25299;SDS011;13241;51.208;4.432;2023-04-08T14:13:07;16.75;;;8.05;;
25299;SDS011;13241;51.208;4.432;2023-04-08T14:15:34;13.75;;;7.68;;
25299;SDS011;13241;51.208;4.432;2023-04-08T14:18:01;12.68;;;6.95;;
25299;SDS011;13241;51.208;4.432;2023-04-08T14:20:28;13.80;;;7.47;;
25299;SDS011;13241;51.208;4.432;2023-04-08T14:22:55;10.38;;;6.80;;
25299;SDS011;13241;51.208;4.432;2023-04-08T14:25:23;13.85;;;7.38;;
25299;SDS011;13241;51.208;4.432;2023-04-08T14:27:49;14.57;;;6.07;;
25299;SDS011;13241;51.208;4.432;2023-04-08T14:30:24;13.55;;;7.00;;
25299;SDS011;13241;51.208;4.432;2023-04-08T14:32:52;12.95;;;7.68;;
25299;SDS011;13241;51.208;4.432;2023-04-08T14:35:19;13.38;;;7.55;;
25299;SDS011;13241;51.208;4.432;2023-04-08T14:37:46;11.48;;;6.50;;
25299;SDS011;13241;51.208;4.432;2023-04-08T14:40:13;9.65;;;6.25;;
25299;SDS011;13241;51.208;4.432;2023-04-08T14:42:40;10.77;;;6.22;;
25299;SDS011;13241;51.208;4.432;2023-04-08T14:45:07;10.68;;;6.78;;
25299;SDS011;13241;51.208;4.432;2023-04-08T14:47:34;13.07;;;6.70;;
25299;SDS011;13241;51.208;4.432;2023-04-08T14:50:01;9.40;;;6.07;;
25299;SDS011;13241;51.208;4.432;2023-04-08T14:52:28;12.63;;;6.65;;
25299;SDS011;13241;51.208;4.432;2023-04-08T14:54:55;11.25;;;6.38;;
25299;SDS011;13241;51.208;4.432;2023-04-08T14:57:21;12.02;;;7.00;;
25299;SDS011;13241;51.208;4.432;2023-04-08T14:59:48;11.25;;;6.75;;
25299;SDS011;13241;51.208;4.432;2023-04-08T15:02:16;12.45;;;7.15;;
25299;SDS011;13241;51.208;4.432;2023-04-08T15:04:43;10.70;;;5.90;;